Pagrindinis puslapis
METAR-TAF:

METAR-TAF

Oro uostai :

Bukareštas-Băneasa, Rumunija

platuma: 44-30N, ilguma: 026-08E, Aukštis: 90 m

Dabartinis oras

Ataskaita buvo paskelbta 39 minutes, ne 14:30 UTC
Vėjas 6 kt iš Vakarų/Pietvakarių, svyruoja nuo Pietvakarių ir Vakarų
Temperatūra 20°C
Drėgmė 24%
Slėgis 1005 hPa
Matomumas 10 km arba daugiau
nėra debesų žemiau 1500 m ir nėra kamuolinių lietaus debesų

METAR: LRBS 291430Z 25006KT 220V280 CAVOK 20/M01 Q1005 NOSIG

Laikas: 18:09 (15:09 UTC)

Prognozė

Ataskaita buvo paskelbta 4 valandos ir 9 minutes, ne 11:00 UTC
Prognozė galioja nuo 29 metu 12 UTC su 30 metu 12 UTC
Vėjas 4 kt nuo kintamojo kryptimis
Matomumas 10 km arba daugiau
nėra debesų žemiau 1500 m ir nėra kamuolinių lietaus debesų

TAF: LRBS 291100Z 2912/3012 VRB04KT CAVOK

Orai ataskaitas ir orų prognozės (METAR, TAF).

turimą stotys yra geltonos ir raudonos taškus žemėlapyje.

Perkelti pele per norėdami pamatyti stoties vardą.

Tada spustelėkite, norėdami matyti oro stebėjimo ir prognozės.

Norėdami pakeisti žemėlapį: spustelėkite ant žalios mygtukų su juodo kryžiaus žemyn,; žalią mygtuką su brūkšneliu, jei norite nutolinti; arba žalių rodyklių gretimoms žemėlapius.


METAR-TAF: